createdAt,value
2017-09-27T00:00:23.226Z,16.00
2017-09-27T00:02:51.482Z,16.00
2017-09-27T00:05:20.620Z,16.00
2017-09-27T00:07:48.875Z,16.00
2017-09-27T00:10:17.148Z,16.00
2017-09-27T00:12:46.194Z,16.10
2017-09-27T00:15:14.521Z,16.00
2017-09-27T00:17:42.796Z,16.00
2017-09-27T00:20:11.829Z,16.00
2017-09-27T00:22:40.152Z,16.00
2017-09-27T00:25:08.449Z,16.00
2017-09-27T00:27:36.788Z,15.90
2017-09-27T00:30:05.063Z,15.90
2017-09-27T00:32:33.345Z,15.90
2017-09-27T00:35:01.622Z,15.90
2017-09-27T00:37:29.883Z,15.80
2017-09-27T00:39:58.137Z,15.80
2017-09-27T00:42:26.457Z,15.80
2017-09-27T00:44:54.754Z,15.80
2017-09-27T00:47:23.028Z,15.80
2017-09-27T00:49:51.283Z,15.80
2017-09-27T00:52:20.317Z,15.70
2017-09-27T00:54:48.597Z,15.70
2017-09-27T00:57:16.870Z,15.60
2017-09-27T00:59:45.122Z,15.60
2017-09-27T01:02:14.151Z,15.50
2017-09-27T01:04:42.398Z,15.50
2017-09-27T01:07:11.467Z,15.50
2017-09-27T01:09:39.819Z,15.50
2017-09-27T01:12:08.670Z,15.50
2017-09-27T01:14:37.696Z,15.40
2017-09-27T01:17:06.037Z,15.30
2017-09-27T01:19:35.792Z,15.20
2017-09-27T01:22:04.096Z,15.20
2017-09-27T01:24:32.382Z,15.20
2017-09-27T01:27:00.658Z,15.20
2017-09-27T01:29:28.912Z,15.10
2017-09-27T01:31:57.225Z,15.10
2017-09-27T01:34:25.478Z,15.10
2017-09-27T01:36:53.750Z,15.10
2017-09-27T01:39:22.786Z,15.10
2017-09-27T01:41:51.066Z,15.10
2017-09-27T01:44:19.346Z,15.10
2017-09-27T01:46:47.615Z,15.10
2017-09-27T01:49:15.867Z,15.00
2017-09-27T01:51:44.899Z,15.00
2017-09-27T01:54:13.155Z,15.00
2017-09-27T01:56:41.411Z,15.00
2017-09-27T01:59:10.442Z,14.90
2017-09-27T02:01:38.699Z,14.90
2017-09-27T02:04:07.025Z,14.90
2017-09-27T02:06:35.334Z,14.90
2017-09-27T02:09:03.629Z,14.90
2017-09-27T02:11:31.858Z,14.90
2017-09-27T02:14:00.156Z,14.90
2017-09-27T02:16:28.427Z,14.90
2017-09-27T02:18:56.686Z,14.90
2017-09-27T02:21:24.943Z,14.90
2017-09-27T02:23:53.974Z,14.90
2017-09-27T02:26:22.231Z,14.90
2017-09-27T02:28:50.558Z,14.80
2017-09-27T02:31:18.821Z,14.80
2017-09-27T02:33:47.095Z,14.70
2017-09-27T02:36:15.356Z,14.60
2017-09-27T02:38:43.626Z,14.60
2017-09-27T02:41:12.630Z,14.60
2017-09-27T02:43:40.899Z,14.60
2017-09-27T02:46:09.939Z,14.50
2017-09-27T02:48:38.211Z,14.50
2017-09-27T02:51:06.501Z,14.50
2017-09-27T02:53:34.763Z,14.50
2017-09-27T02:56:03.067Z,14.50
2017-09-27T02:58:31.315Z,14.50
2017-09-27T03:01:00.347Z,14.40
2017-09-27T03:03:28.599Z,14.40
2017-09-27T03:05:56.881Z,14.40
2017-09-27T03:08:25.191Z,14.50
2017-09-27T03:10:53.474Z,14.40
2017-09-27T03:13:21.728Z,14.50
2017-09-27T03:15:49.994Z,14.50
2017-09-27T03:18:19.011Z,14.40
2017-09-27T03:20:47.305Z,14.50
2017-09-27T03:23:15.591Z,14.40
2017-09-27T03:25:43.858Z,14.40
2017-09-27T03:28:12.148Z,14.50
2017-09-27T03:30:40.421Z,14.50
2017-09-27T03:33:08.744Z,14.40
2017-09-27T03:35:36.972Z,14.40
2017-09-27T03:38:05.261Z,14.40
2017-09-27T03:40:33.565Z,14.40
2017-09-27T03:43:01.827Z,14.40
2017-09-27T03:45:30.107Z,14.40
2017-09-27T03:47:58.403Z,14.40
2017-09-27T03:50:26.651Z,14.30
2017-09-27T03:52:54.918Z,14.30
2017-09-27T03:55:23.940Z,14.30
2017-09-27T03:57:52.226Z,14.20
2017-09-27T04:00:20.515Z,14.20
2017-09-27T04:02:48.798Z,14.20
2017-09-27T04:05:17.084Z,14.20
2017-09-27T04:07:45.334Z,14.20
2017-09-27T04:10:13.647Z,14.20
2017-09-27T04:12:41.918Z,14.30
2017-09-27T04:15:10.186Z,14.20
2017-09-27T04:17:38.489Z,14.30
2017-09-27T04:20:06.804Z,14.30
2017-09-27T04:22:35.025Z,14.40
2017-09-27T04:25:03.292Z,14.40
2017-09-27T04:27:32.347Z,14.50
2017-09-27T04:30:00.610Z,14.40
2017-09-27T04:32:28.863Z,14.50
2017-09-27T04:34:57.895Z,14.50
2017-09-27T04:37:26.181Z,14.50
2017-09-27T04:39:54.452Z,14.40
2017-09-27T04:42:22.724Z,14.50
2017-09-27T04:44:50.983Z,14.50
2017-09-27T04:47:19.238Z,14.50
2017-09-27T04:49:48.277Z,14.40
2017-09-27T04:52:16.527Z,14.40
2017-09-27T04:54:45.565Z,14.40
2017-09-27T04:57:13.819Z,14.40
2017-09-27T04:59:43.081Z,14.30
2017-09-27T05:02:11.352Z,14.30
2017-09-27T05:04:39.618Z,14.30
2017-09-27T05:07:08.667Z,14.30
2017-09-27T05:09:37.117Z,14.30
2017-09-27T05:12:05.382Z,14.30
2017-09-27T05:14:33.662Z,14.40
2017-09-27T05:17:01.923Z,14.30
2017-09-27T05:19:30.222Z,14.30
2017-09-27T05:21:58.482Z,14.30
2017-09-27T05:24:26.736Z,14.30
2017-09-27T05:26:55.780Z,14.30
2017-09-27T05:29:24.063Z,14.30
2017-09-27T05:31:52.322Z,14.30
2017-09-27T05:34:20.590Z,14.30
2017-09-27T05:36:49.623Z,14.30
2017-09-27T05:39:17.906Z,14.30
2017-09-27T05:41:46.185Z,14.30
2017-09-27T05:44:14.446Z,14.40
2017-09-27T05:46:42.711Z,14.40
2017-09-27T05:49:10.963Z,14.30
2017-09-27T05:51:39.235Z,14.40
2017-09-27T05:54:07.490Z,14.40
2017-09-27T05:56:35.771Z,14.40
2017-09-27T05:59:04.052Z,14.40
2017-09-27T06:01:32.339Z,14.40
2017-09-27T06:04:00.582Z,14.50
2017-09-27T06:06:28.889Z,14.50
2017-09-27T06:08:57.167Z,14.50
2017-09-27T06:11:25.446Z,14.60
2017-09-27T06:13:53.735Z,14.60
2017-09-27T06:16:21.997Z,14.70
2017-09-27T06:18:50.253Z,14.70
2017-09-27T06:21:19.291Z,14.90
2017-09-27T06:23:47.564Z,14.80
2017-09-27T06:26:15.894Z,15.00
2017-09-27T06:28:44.264Z,15.00
2017-09-27T06:31:12.542Z,15.10
2017-09-27T06:33:40.839Z,15.10
2017-09-27T06:36:09.908Z,15.20
2017-09-27T06:38:38.182Z,15.20
2017-09-27T06:41:06.432Z,15.30
2017-09-27T06:43:34.704Z,15.40
2017-09-27T06:46:03.748Z,15.50
2017-09-27T06:48:32.048Z,15.50
2017-09-27T06:51:00.290Z,15.60
2017-09-27T06:53:28.578Z,15.70
2017-09-27T06:55:56.860Z,15.70
2017-09-27T06:58:25.132Z,15.70
2017-09-27T07:00:53.406Z,15.70
2017-09-27T07:03:21.663Z,15.80
2017-09-27T07:05:51.111Z,15.90
2017-09-27T07:08:19.394Z,15.90
2017-09-27T07:10:47.659Z,15.90
2017-09-27T07:13:15.927Z,15.90
2017-09-27T07:15:44.210Z,16.00
2017-09-27T07:18:12.519Z,16.00
2017-09-27T07:20:40.772Z,16.00
2017-09-27T07:23:09.044Z,16.10
2017-09-27T07:25:37.300Z,16.20
2017-09-27T07:28:06.330Z,16.60
2017-09-27T07:30:34.578Z,16.50
2017-09-27T07:33:02.851Z,16.70
2017-09-27T07:35:31.099Z,16.80
2017-09-27T07:37:59.374Z,16.90
2017-09-27T07:40:27.641Z,17.00
2017-09-27T07:42:55.894Z,17.00
2017-09-27T07:45:24.921Z,17.30
2017-09-27T07:47:53.178Z,17.30
2017-09-27T07:50:22.230Z,17.90
2017-09-27T07:52:50.479Z,17.90
2017-09-27T07:55:18.748Z,18.10
2017-09-27T07:57:48.291Z,18.20
2017-09-27T08:00:16.819Z,18.20
2017-09-27T08:02:45.044Z,18.30
2017-09-27T08:05:13.353Z,18.30
2017-09-27T08:07:41.597Z,18.40
2017-09-27T08:10:09.907Z,18.60
2017-09-27T08:12:38.392Z,18.90
2017-09-27T08:15:06.676Z,19.20
2017-09-27T08:17:34.927Z,19.50
2017-09-27T08:20:03.218Z,19.90
2017-09-27T08:22:31.510Z,20.40
2017-09-27T08:24:59.793Z,20.80
2017-09-27T08:27:28.042Z,21.20
2017-09-27T08:29:57.178Z,21.80
2017-09-27T08:32:25.423Z,21.80
2017-09-27T08:34:54.764Z,22.30
2017-09-27T08:37:23.040Z,22.30
2017-09-27T08:39:51.326Z,22.50
2017-09-27T08:42:19.625Z,22.70
2017-09-27T08:44:47.911Z,22.80
2017-09-27T08:47:16.196Z,23.00
2017-09-27T08:49:44.611Z,23.10
2017-09-27T08:52:12.846Z,23.20
2017-09-27T08:54:41.129Z,23.30
2017-09-27T08:57:09.436Z,23.40
2017-09-27T08:59:37.686Z,23.50
2017-09-27T09:02:05.951Z,23.60
2017-09-27T09:04:34.202Z,23.80
2017-09-27T09:07:03.234Z,23.90
2017-09-27T09:09:31.529Z,23.90
2017-09-27T09:11:59.794Z,23.90
2017-09-27T09:14:28.051Z,24.00
2017-09-27T09:16:57.089Z,24.00
2017-09-27T09:19:25.371Z,24.00
2017-09-27T09:21:53.639Z,24.00
2017-09-27T09:24:21.894Z,24.00
2017-09-27T09:26:50.979Z,24.10
2017-09-27T09:29:19.212Z,24.10
2017-09-27T09:31:47.477Z,24.00
2017-09-27T09:34:15.795Z,23.90
2017-09-27T09:36:44.063Z,24.10
2017-09-27T09:39:12.346Z,24.10
2017-09-27T09:41:40.627Z,24.20
2017-09-27T09:44:08.879Z,24.30
2017-09-27T09:46:37.137Z,24.40
2017-09-27T09:49:06.280Z,24.50
2017-09-27T09:51:34.532Z,24.50
2017-09-27T09:54:02.840Z,24.50
2017-09-27T09:56:31.096Z,24.40
2017-09-27T09:58:59.360Z,24.30
2017-09-27T10:01:28.403Z,24.20
2017-09-27T10:03:56.724Z,24.10
2017-09-27T10:06:24.949Z,24.30
2017-09-27T10:08:53.224Z,24.40
2017-09-27T10:11:21.495Z,24.50
2017-09-27T10:13:49.803Z,24.60
2017-09-27T10:16:18.090Z,24.70
2017-09-27T10:18:46.372Z,24.80
2017-09-27T10:21:14.621Z,24.90
2017-09-27T10:23:42.954Z,24.90
2017-09-27T10:26:11.246Z,25.10
2017-09-27T10:28:39.595Z,25.20
2017-09-27T10:31:08.464Z,25.30
2017-09-27T10:33:36.984Z,25.50
2017-09-27T10:36:05.242Z,25.50
2017-09-27T10:38:33.544Z,25.70
2017-09-27T10:41:01.828Z,25.50
2017-09-27T10:43:30.099Z,25.10
2017-09-27T10:45:58.355Z,24.90
2017-09-27T10:48:27.399Z,24.80
2017-09-27T10:50:55.645Z,24.70
2017-09-27T10:53:23.896Z,24.80
2017-09-27T10:55:52.942Z,24.50
2017-09-27T10:58:21.187Z,24.60
2017-09-27T11:00:50.210Z,25.00
2017-09-27T11:03:18.503Z,25.00
2017-09-27T11:05:46.783Z,24.90
2017-09-27T11:08:15.040Z,24.90
2017-09-27T11:10:43.380Z,25.00
2017-09-27T11:13:12.427Z,25.30
2017-09-27T11:15:40.745Z,25.20
2017-09-27T11:18:09.050Z,25.40
2017-09-27T11:20:38.951Z,25.50
2017-09-27T11:23:07.192Z,25.60
2017-09-27T11:25:35.488Z,25.70
2017-09-27T11:28:03.768Z,25.90
2017-09-27T11:30:32.050Z,25.90
2017-09-27T11:33:00.305Z,26.10
2017-09-27T11:35:28.566Z,26.20
2017-09-27T11:37:57.584Z,26.30
2017-09-27T11:40:25.853Z,26.30
2017-09-27T11:42:54.874Z,26.40
2017-09-27T11:45:23.144Z,26.30
2017-09-27T11:47:51.400Z,26.20
2017-09-27T11:50:20.449Z,26.10
2017-09-27T11:52:48.730Z,26.10
2017-09-27T11:55:16.999Z,25.90
2017-09-27T11:57:45.256Z,25.80
2017-09-27T12:00:14.268Z,25.70
2017-09-27T12:02:42.563Z,25.70
2017-09-27T12:05:10.821Z,25.60
2017-09-27T12:07:39.854Z,25.60
2017-09-27T12:10:08.120Z,25.50
2017-09-27T12:12:36.387Z,25.50
2017-09-27T12:15:05.435Z,25.70
2017-09-27T12:17:33.800Z,25.70
2017-09-27T12:20:02.097Z,25.70
2017-09-27T12:22:30.374Z,25.70
2017-09-27T12:24:58.655Z,25.70
2017-09-27T12:27:26.930Z,25.60
2017-09-27T12:29:55.179Z,25.50
2017-09-27T12:32:24.241Z,25.00
2017-09-27T12:34:52.475Z,25.00
2017-09-27T12:37:20.787Z,24.80
2017-09-27T12:39:49.123Z,24.70
2017-09-27T12:42:18.151Z,24.50
2017-09-27T12:44:46.710Z,24.50
2017-09-27T12:47:15.782Z,24.50
2017-09-27T12:49:44.028Z,24.50
2017-09-27T12:52:12.289Z,24.50
2017-09-27T12:54:40.591Z,24.40
2017-09-27T12:57:08.917Z,24.30
2017-09-27T12:59:37.180Z,24.30
2017-09-27T13:02:05.463Z,24.20
2017-09-27T13:04:35.331Z,24.30
2017-09-27T13:07:03.610Z,24.30
2017-09-27T13:09:31.917Z,24.30
2017-09-27T13:12:00.172Z,24.40
2017-09-27T13:14:28.474Z,24.50
2017-09-27T13:16:56.744Z,24.40
2017-09-27T13:19:25.032Z,24.30
2017-09-27T13:21:53.390Z,24.30
2017-09-27T13:24:22.421Z,24.20
2017-09-27T13:26:50.683Z,24.10
2017-09-27T13:29:18.955Z,24.10
2017-09-27T13:31:47.967Z,24.10
2017-09-27T13:34:16.245Z,24.00
2017-09-27T13:36:45.265Z,23.80
2017-09-27T13:39:13.540Z,23.70
2017-09-27T13:41:41.837Z,24.00
2017-09-27T13:44:10.103Z,24.10
2017-09-27T13:46:38.357Z,24.20
2017-09-27T13:49:07.404Z,24.50
2017-09-27T13:51:35.677Z,24.40
2017-09-27T13:54:04.095Z,24.50
2017-09-27T13:56:32.339Z,24.40
2017-09-27T13:59:00.628Z,24.40
2017-09-27T14:01:28.887Z,24.40
2017-09-27T14:03:57.177Z,24.30
2017-09-27T14:06:25.600Z,24.40
2017-09-27T14:08:54.015Z,24.30
2017-09-27T14:11:23.049Z,24.20
2017-09-27T14:13:51.371Z,24.20
2017-09-27T14:16:19.638Z,24.10
2017-09-27T14:18:47.986Z,23.90
2017-09-27T14:21:16.310Z,23.80
2017-09-27T14:23:44.817Z,23.70
2017-09-27T14:26:13.139Z,23.60
2017-09-27T14:28:41.415Z,23.50
2017-09-27T14:31:09.675Z,23.40
2017-09-27T14:33:38.028Z,23.30
2017-09-27T14:36:06.363Z,23.20
2017-09-27T14:38:34.613Z,23.10
2017-09-27T14:41:02.926Z,23.00
2017-09-27T14:43:31.174Z,23.00
2017-09-27T14:46:00.302Z,22.80
2017-09-27T14:48:29.405Z,22.80
2017-09-27T14:50:57.791Z,22.80
2017-09-27T14:53:26.047Z,22.90
2017-09-27T14:55:55.070Z,22.70
2017-09-27T14:58:23.895Z,22.70
2017-09-27T15:00:52.158Z,22.70
2017-09-27T15:03:20.423Z,22.70
2017-09-27T15:05:48.689Z,22.70
2017-09-27T15:08:16.939Z,22.60
2017-09-27T15:10:46.183Z,22.50
2017-09-27T15:13:14.470Z,22.50
2017-09-27T15:15:42.738Z,22.50
2017-09-27T15:18:11.007Z,22.40
2017-09-27T15:20:39.289Z,22.30
2017-09-27T15:23:07.547Z,22.30
2017-09-27T15:25:36.569Z,22.40
2017-09-27T15:30:38.373Z,22.30
2017-09-27T15:33:06.628Z,22.20
2017-09-27T15:35:34.924Z,22.20
2017-09-27T15:38:03.211Z,22.20
2017-09-27T15:40:31.498Z,22.10
2017-09-27T15:42:59.759Z,22.10
2017-09-27T15:45:28.115Z,22.00
2017-09-27T15:47:57.149Z,22.00
2017-09-27T15:50:25.448Z,21.90
2017-09-27T15:52:53.721Z,21.90
2017-09-27T15:55:21.959Z,21.90
2017-09-27T15:57:51.042Z,21.80
2017-09-27T16:00:19.291Z,21.80
2017-09-27T16:02:47.555Z,21.80
2017-09-27T16:05:15.860Z,21.80
2017-09-27T16:07:44.231Z,21.80
2017-09-27T16:10:12.698Z,21.70
2017-09-27T16:12:40.970Z,21.60
2017-09-27T16:15:09.217Z,21.60
2017-09-27T16:17:38.255Z,21.60
2017-09-27T16:20:06.502Z,21.60
2017-09-27T16:22:35.557Z,21.50
2017-09-27T16:25:03.807Z,21.50
2017-09-27T16:27:32.095Z,21.50
2017-09-27T16:30:00.335Z,21.40
2017-09-27T16:32:28.675Z,21.40
2017-09-27T16:34:56.992Z,21.40
2017-09-27T16:37:25.264Z,21.40
2017-09-27T16:39:53.509Z,21.30
2017-09-27T16:42:21.780Z,21.20
2017-09-27T16:44:50.046Z,21.10
2017-09-27T16:47:19.067Z,21.00
2017-09-27T16:49:47.331Z,21.00
2017-09-27T16:52:15.638Z,21.00
2017-09-27T16:54:43.906Z,21.00
2017-09-27T16:57:12.211Z,20.90
2017-09-27T16:59:40.516Z,20.80
2017-09-27T17:02:08.741Z,20.80
2017-09-27T17:04:37.006Z,20.80
2017-09-27T17:07:06.032Z,20.70
2017-09-27T17:09:34.294Z,20.70
2017-09-27T17:12:02.569Z,20.70
2017-09-27T17:14:31.594Z,20.60
2017-09-27T17:16:59.864Z,20.50
2017-09-27T17:19:28.881Z,20.50
2017-09-27T17:21:57.143Z,20.50
2017-09-27T17:24:27.289Z,20.40
2017-09-27T17:26:55.541Z,20.40
2017-09-27T17:29:23.846Z,20.30
2017-09-27T17:31:52.093Z,20.30
2017-09-27T17:34:21.147Z,20.20
2017-09-27T17:36:49.422Z,20.20
2017-09-27T17:39:17.678Z,20.10
2017-09-27T17:41:45.930Z,20.10
2017-09-27T17:44:15.012Z,20.00
2017-09-27T17:46:43.262Z,20.00
2017-09-27T17:49:11.568Z,19.90
2017-09-27T17:51:39.819Z,19.90
2017-09-27T17:54:08.154Z,19.80
2017-09-27T17:56:36.495Z,19.70
2017-09-27T17:59:04.744Z,19.70
2017-09-27T18:01:33.048Z,19.70
2017-09-27T18:04:01.754Z,19.70
2017-09-27T18:06:35.675Z,19.60
2017-09-27T18:09:09.632Z,19.60
2017-09-27T18:15:00.919Z,19.40
2017-09-27T18:17:29.775Z,19.40
2017-09-27T18:19:58.032Z,19.40
2017-09-27T18:22:27.359Z,19.20
2017-09-27T18:24:55.618Z,19.20
2017-09-27T18:27:24.679Z,19.10
2017-09-27T18:29:52.928Z,19.10
2017-09-27T18:32:21.187Z,19.00
2017-09-27T18:34:50.199Z,19.00
2017-09-27T18:37:18.522Z,18.90
2017-09-27T18:39:46.788Z,18.90
2017-09-27T18:42:16.982Z,18.70
2017-09-27T18:44:45.987Z,18.70
2017-09-27T18:47:14.401Z,18.70
2017-09-27T18:49:42.642Z,18.60
2017-09-27T18:52:11.884Z,18.50
2017-09-27T18:54:40.139Z,18.50
2017-09-27T18:57:08.430Z,18.50
2017-09-27T18:59:36.722Z,18.50
2017-09-27T19:02:04.991Z,18.50
2017-09-27T19:04:33.255Z,18.40
2017-09-27T19:07:01.542Z,18.40
2017-09-27T19:09:29.803Z,18.30
2017-09-27T19:11:58.849Z,18.30
2017-09-27T19:14:27.122Z,18.30
2017-09-27T19:16:55.406Z,18.20
2017-09-27T19:19:23.822Z,18.10
2017-09-27T19:21:52.167Z,18.10
2017-09-27T19:24:20.458Z,18.10
2017-09-27T19:26:48.734Z,18.00
2017-09-27T19:29:16.995Z,18.00
2017-09-27T19:31:45.285Z,18.00
2017-09-27T19:34:13.588Z,17.90
2017-09-27T19:36:41.858Z,17.90
2017-09-27T19:39:10.127Z,17.80
2017-09-27T19:41:38.411Z,17.80
2017-09-27T19:44:06.662Z,17.70
2017-09-27T19:46:35.818Z,17.70
2017-09-27T19:49:04.080Z,17.70
2017-09-27T19:51:32.342Z,17.70
2017-09-27T19:54:00.647Z,17.70
2017-09-27T19:56:28.932Z,17.70
2017-09-27T19:58:57.200Z,17.70
2017-09-27T20:01:25.454Z,17.70
2017-09-27T20:03:54.494Z,17.70
2017-09-27T20:06:22.821Z,17.60
2017-09-27T20:08:51.167Z,17.60
2017-09-27T20:11:19.418Z,17.60
2017-09-27T20:13:47.695Z,17.60
2017-09-27T20:16:15.954Z,17.50
2017-09-27T20:18:45.095Z,17.50
2017-09-27T20:21:13.379Z,17.50
2017-09-27T20:23:41.824Z,17.40
2017-09-27T20:26:10.867Z,17.40
2017-09-27T20:28:39.130Z,17.30
2017-09-27T20:31:07.387Z,17.30
2017-09-27T20:33:35.639Z,17.30
2017-09-27T20:36:03.920Z,17.30
2017-09-27T20:38:32.230Z,17.30
2017-09-27T20:41:01.248Z,17.20
2017-09-27T20:43:29.515Z,17.20
2017-09-27T20:45:57.822Z,17.20
2017-09-27T20:48:26.105Z,17.20
2017-09-27T20:50:54.363Z,17.10
2017-09-27T20:53:22.620Z,17.10
2017-09-27T20:55:51.659Z,17.20
2017-09-27T20:58:19.910Z,17.10
2017-09-27T21:00:48.940Z,17.10
2017-09-27T21:03:17.223Z,17.00
2017-09-27T21:05:45.502Z,17.10
2017-09-27T21:08:13.747Z,17.00
2017-09-27T21:10:42.779Z,17.00
2017-09-27T21:13:11.065Z,17.00
2017-09-27T21:15:39.299Z,17.00
2017-09-27T21:18:08.319Z,16.90
2017-09-27T21:20:36.633Z,16.90
2017-09-27T21:23:04.900Z,16.90
2017-09-27T21:25:33.167Z,16.80
2017-09-27T21:28:01.415Z,16.80
2017-09-27T21:30:30.455Z,16.70
2017-09-27T21:32:58.774Z,16.70
2017-09-27T21:35:27.011Z,16.70
2017-09-27T21:37:55.403Z,16.70
2017-09-27T21:40:23.655Z,16.60
2017-09-27T21:42:51.922Z,16.50
2017-09-27T21:45:20.955Z,16.40
2017-09-27T21:47:49.223Z,16.40
2017-09-27T21:50:17.623Z,16.30
2017-09-27T21:52:45.899Z,16.20
2017-09-27T21:55:14.187Z,16.20
2017-09-27T21:57:42.480Z,16.20
2017-09-27T22:00:10.758Z,16.10
2017-09-27T22:02:39.033Z,16.10
2017-09-27T22:05:07.326Z,16.10
2017-09-27T22:07:35.589Z,16.10
2017-09-27T22:10:03.833Z,16.10
2017-09-27T22:12:32.162Z,16.20
2017-09-27T22:15:00.421Z,16.10
2017-09-27T22:17:28.694Z,16.10
2017-09-27T22:19:56.942Z,16.10
2017-09-27T22:22:26.723Z,16.00
2017-09-27T22:24:55.007Z,16.00
2017-09-27T22:27:23.300Z,16.00
2017-09-27T22:29:51.551Z,16.00
2017-09-27T22:32:19.814Z,15.90
2017-09-27T22:34:48.850Z,15.90
2017-09-27T22:37:17.127Z,15.90
2017-09-27T22:39:46.268Z,15.90
2017-09-27T22:42:14.559Z,15.90
2017-09-27T22:44:43.572Z,15.90
2017-09-27T22:47:12.629Z,15.90
2017-09-27T22:49:40.877Z,15.90
2017-09-27T22:52:09.120Z,15.90
2017-09-27T22:54:38.160Z,15.90
2017-09-27T22:57:06.443Z,15.80
2017-09-27T22:59:34.723Z,15.80
2017-09-27T23:02:03.006Z,15.80
2017-09-27T23:04:31.267Z,15.90
2017-09-27T23:06:59.518Z,15.80
2017-09-27T23:09:28.547Z,15.80
2017-09-27T23:11:56.807Z,15.80
2017-09-27T23:14:25.934Z,15.70
2017-09-27T23:16:54.264Z,15.70
2017-09-27T23:19:22.506Z,15.70
2017-09-27T23:21:50.758Z,15.70
2017-09-27T23:24:19.078Z,15.70
2017-09-27T23:26:47.355Z,15.60
2017-09-27T23:29:15.614Z,15.50
2017-09-27T23:31:44.018Z,15.50
2017-09-27T23:34:12.307Z,15.50
2017-09-27T23:36:40.575Z,15.50
2017-09-27T23:39:08.866Z,15.40
2017-09-27T23:41:37.149Z,15.40
2017-09-27T23:44:05.411Z,15.40
2017-09-27T23:46:33.706Z,15.40
2017-09-27T23:49:02.024Z,15.30
2017-09-27T23:51:30.252Z,15.30
2017-09-27T23:53:58.547Z,15.30
2017-09-27T23:56:26.822Z,15.30
2017-09-27T23:58:55.134Z,15.40
